| time (UTC) | temp F | wind direction | speed knots | gust knots | rain 1hr in | rain 24hr in | rain mn in | humidity % | barometer mb |
| 20260906180526 | 86 | 150 | 1.7 | 4.3 | 0.00 | 0.00 | 0.00 | 36 | 1022.5 |
| 20260906175522 | 85 | 204 | 1.7 | 4.3 | 0.00 | 0.00 | 0.00 | 36 | 1022.7 |
| 20260906174520 | 84 | 102 | 0.9 | 3.5 | 0.00 | 0.00 | 0.00 | 37 | 1022.9 |
| 20260906173535 | 85 | 133 | 0.9 | 4.3 | 0.00 | 0.00 | 0.00 | 36 | 1023.0 |
| 20260906172530 | 84 | 134 | 0.9 | 4.3 | 0.00 | 0.00 | 0.00 | 36 | 1023.1 |
| 20260906171526 | 83 | 154 | 0.9 | 4.3 | 0.00 | 0.00 | 0.00 | 36 | 1023.2 |
| 20260906170543 | 85 | 73 | 0.0 | 1.7 | 0.00 | 0.00 | 0.00 | 34 | 1023.2 |
| 20260906165519 | 85 | 165 | 0.9 | 2.6 | 0.00 | 0.00 | 0.00 | 34 | 1023.2 |
| 20260906164535 | 84 | 142 | 0.9 | 3.5 | 0.00 | 0.00 | 0.00 | 34 | 1023.2 |
| 20260906163531 | 84 | 177 | 1.7 | 4.3 | 0.00 | 0.00 | 0.00 | 34 | 1023.2 |
| 20260906162547 | 83 | 171 | 0.9 | 2.6 | 0.00 | 0.00 | 0.00 | 34 | 1023.2 |
| 20260906161523 | 83 | 128 | 0.9 | 1.7 | 0.00 | 0.00 | 0.00 | 35 | 1023.2 |
| 20260906160519 | 83 | 121 | 0.9 | 2.6 | 0.00 | 0.00 | 0.00 | 35 | 1023.2 |
| 20260906155515 | 81 | 45 | 1.7 | 3.5 | 0.00 | 0.00 | 0.00 | 36 | 1023.1 |
| 20260906154532 | 81 | 62 | 0.9 | 1.7 | 0.00 | 0.00 | 0.00 | 36 | 1023.1 |
| 20260906153527 | 81 | 77 | 0.0 | 1.7 | 0.00 | 0.00 | 0.00 | 37 | 1023.0 |
| 20260906152544 | 80 | 59 | 0.9 | 1.7 | 0.00 | 0.00 | 0.00 | 38 | 1023.0 |
| 20260906151520 | 78 | 54 | 0.9 | 2.6 | 0.00 | 0.00 | 0.00 | 39 | 1023.0 |
| 20260906150516 | 77 | 19 | 0.9 | 2.6 | 0.00 | 0.00 | 0.00 | 41 | 1023.1 |
| 20260906145532 | 75 | 27 | 0.9 | 3.5 | 0.00 | 0.00 | 0.00 | 44 | 1023.1 |
| 20260906144528 | 72 | 25 | 0.9 | 2.6 | 0.00 | 0.00 | 0.00 | 47 | 1023.0 |
| 20260906143524 | 71 | 7 | 0.9 | 2.6 | 0.00 | 0.00 | 0.00 | 49 | 1023.1 |
| 20260906142520 | 69 | 18 | 0.9 | 2.6 | 0.00 | 0.00 | 0.00 | 50 | 1023.0 |
| 20260906141536 | 68 | 22 | 0.9 | 3.5 | 0.00 | 0.00 | 0.00 | 52 | 1022.8 |
| 20260906140533 | 65 | 15 | 0.9 | 2.6 | 0.00 | 0.00 | 0.00 | 60 | 1022.9 |
| 20260906135529 | 63 | 17 | 0.9 | 1.7 | 0.00 | 0.00 | 0.00 | 66 | 1023.0 |
| 20260906134525 | 61 | 18 | 0.0 | 0.9 | 0.00 | 0.00 | 0.00 | 71 | 1022.9 |
| 20260906133521 | 60 | 49 | 0.0 | 0.9 | 0.00 | 0.00 | 0.00 | 74 | 1022.8 |
| 20260906132517 | 59 | 0.0 | 0.0 | 0.00 | 0.00 | 0.00 | 73 | 1022.7 | |
| 20260906131554 | 58 | 36 | 0.0 | 0.9 | 0.00 | 0.00 | 0.00 | 76 | 1022.6 |
| 20260906130530 | 58 | 30 | 0.0 | 1.7 | 0.00 | 0.00 | 0.00 | 76 | 1022.6 |
| 20260906125546 | 58 | 0.0 | 0.0 | 0.00 | 0.00 | 0.00 | 76 | 1022.6 | |
| 20260906124543 | 58 | 353 | 0.0 | 1.7 | 0.00 | 0.00 | 0.00 | 76 | 1022.6 |
| 20260906123518 | 59 | 0.0 | 0.9 | 0.00 | 0.00 | 0.00 | 75 | 1022.6 | |
| 20260906122534 | 59 | 23 | 0.0 | 1.7 | 0.00 | 0.00 | 0.00 | 74 | 1022.6 |
| 20260906121530 | 59 | 64 | 0.0 | 1.7 | 0.00 | 0.00 | 0.00 | 71 | 1022.4 |
| 20260906120547 | 60 | 0.0 | 0.9 | 0.00 | 0.00 | 0.00 | 69 | 1022.4 | |
| 20260906115523 | 60 | 72 | 0.0 | 0.9 | 0.00 | 0.00 | 0.00 | 70 | 1022.4 |
| 20260906114539 | 61 | 0.0 | 0.9 | 0.00 | 0.00 | 0.00 | 69 | 1022.2 | |
| 20260906113515 | 60 | 0.0 | 0.0 | 0.00 | 0.00 | 0.00 | 71 | 1022.2 | |
| 20260906112531 | 61 | 0.0 | 0.0 | 0.00 | 0.00 | 0.00 | 73 | 1022.2 | |
| 20260906111528 | 61 | 339 | 0.0 | 1.7 | 0.00 | 0.00 | 0.00 | 73 | 1022.1 |
| 20260906110543 | 61 | 0.0 | 0.9 | 0.00 | 0.00 | 0.00 | 74 | 1022.0 | |
| 20260906105520 | 61 | 5 | 0.0 | 0.9 | 0.00 | 0.00 | 0.00 | 74 | 1021.9 |
| 20260906104516 | 61 | 163 | 0.0 | 0.9 | 0.00 | 0.00 | 0.00 | 74 | 1021.9 |
| 20260906103532 | 62 | 0.0 | 0.0 | 0.00 | 0.00 | 0.00 | 74 | 1021.9 | |
| 20260906102528 | 62 | 0.0 | 0.0 | 0.00 | 0.00 | 0.00 | 74 | 1022.0 | |
| 20260906101604 | 62 | 4 | 0.0 | 1.7 | 0.00 | 0.00 | 0.00 | 74 | 1022.2 |
| 20260906100521 | 61 | 0.0 | 0.0 | 0.00 | 0.00 | 0.00 | 76 | 1022.3 | |
| 20260906095537 | 61 | 5 | 0.0 | 0.9 | 0.00 | 0.00 | 0.00 | 76 | 1022.6 |
| 20260906094533 | 61 | 0.0 | 0.0 | 0.00 | 0.00 | 0.00 | 76 | 1022.5 | |
| 20260906093529 | 62 | 0.0 | 0.9 | 0.00 | 0.00 | 0.00 | 75 | 1022.3 | |
| 20260906092605 | 62 | 171 | 0.0 | 0.9 | 0.00 | 0.00 | 0.00 | 75 | 1022.3 |
| 20260906091521 | 62 | 356 | 0.0 | 1.7 | 0.00 | 0.00 | 0.00 | 74 | 1022.1 |
| 20260906090558 | 62 | 0.0 | 0.0 | 0.00 | 0.00 | 0.00 | 74 | 1022.2 | |
| 20260906090029 | 62 | 3 | 0.0 | 1.7 | 0.00 | 0.00 | 0.00 | 74 | 1022.1 |
| 20260906085025 | 62 | 360 | 0.9 | 1.7 | 0.00 | 0.00 | 0.00 | 74 | 1022.1 |
| 20260906084022 | 62 | 343 | 0.0 | 0.9 | 0.00 | 0.00 | 0.00 | 75 | 1022.1 |
| 20260906083018 | 62 | 0.0 | 0.9 | 0.00 | 0.00 | 0.00 | 74 | 1022.0 | |
| 20260906082054 | 62 | 3 | 0.0 | 1.7 | 0.00 | 0.00 | 0.00 | 74 | 1022.2 |
| 20260906081042 | 62 | 0.0 | 0.0 | 0.00 | 0.00 | 0.00 | 73 | 1022.2 | |
| 20260906080026 | 63 | 33 | 0.9 | 1.7 | 0.00 | 0.00 | 0.00 | 72 | 1022.1 |
| 20260906075022 | 63 | 0.0 | 0.9 | 0.00 | 0.00 | 0.00 | 71 | 1022.3 | |
| 20260906074018 | 64 | 2 | 0.0 | 0.9 | 0.00 | 0.00 | 0.00 | 70 | 1022.3 |
| 20260906073034 | 64 | 39 | 0.0 | 1.7 | 0.00 | 0.00 | 0.00 | 70 | 1022.5 |
| 20260906072029 | 64 | 35 | 0.9 | 2.6 | 0.00 | 0.00 | 0.00 | 68 | 1022.4 |
| 20260906071025 | 64 | 7 | 2.6 | 4.3 | 0.00 | 0.00 | 0.00 | 69 | 1022.6 |
| 20260906070021 | 64 | 6 | 1.7 | 4.3 | 0.00 | 0.00 | 0.00 | 69 | 1022.4 |
| 20260906065057 | 64 | 8 | 0.9 | 1.7 | 0.00 | 0.00 | 0.00 | 71 | 1022.4 |
| 20260906064033 | 64 | 1 | 0.0 | 0.9 | 0.00 | 0.00 | 0.00 | 72 | 1022.7 |
| 20260906063028 | 64 | 41 | 0.0 | 0.9 | 0.00 | 0.00 | 0.00 | 72 | 1022.6 |
| 20260906062024 | 64 | 0.0 | 0.9 | 0.00 | 0.00 | 0.00 | 71 | 1022.6 | |
| 20260906061020 | 65 | 3 | 0.9 | 1.7 | 0.00 | 0.00 | 0.00 | 70 | 1022.5 |
| 20260906060036 | 64 | 0.0 | 0.0 | 0.00 | 0.00 | 0.00 | 71 | 1022.3 | |
| 20260906055032 | 65 | 0.0 | 0.0 | 0.00 | 0.00 | 0.00 | 71 | 1022.2 | |
| 20260906054048 | 65 | 0.0 | 0.0 | 0.00 | 0.00 | 0.00 | 70 | 1022.1 | |
| 20260906053024 | 66 | 336 | 0.0 | 0.9 | 0.00 | 0.00 | 0.00 | 70 | 1022.0 |
| 20260906052021 | 66 | 0.0 | 0.0 | 0.00 | 0.00 | 0.00 | 69 | 1022.1 | |
| 20260906051017 | 66 | 0.0 | 0.9 | 0.00 | 0.00 | 0.00 | 68 | 1022.1 | |
| 20260906050033 | 67 | 0.0 | 0.0 | 0.00 | 0.00 | 0.00 | 66 | 1022.0 | |
| 20260906045029 | 67 | 41 | 0.0 | 0.9 | 0.00 | 0.00 | 0.00 | 65 | 1022.2 |
| 20260906044025 | 68 | 0.0 | 0.0 | 0.00 | 0.00 | 0.00 | 63 | 1022.3 | |
| 20260906043021 | 68 | 0.0 | 0.9 | 0.00 | 0.00 | 0.00 | 64 | 1022.3 | |
| 20260906042037 | 69 | 0.0 | 0.9 | 0.00 | 0.00 | 0.00 | 62 | 1022.4 | |
| 20260906041033 | 69 | 0.0 | 0.9 | 0.00 | 0.00 | 0.00 | 60 | 1022.2 | |
| 20260906040030 | 70 | 39 | 0.0 | 0.9 | 0.00 | 0.00 | 0.00 | 58 | 1022.3 |
| 20260906035025 | 70 | 0.0 | 0.0 | 0.00 | 0.00 | 0.00 | 56 | 1022.3 | |
| 20260906034101 | 71 | 0.0 | 0.0 | 0.00 | 0.00 | 0.00 | 53 | 1022.5 | |
| 20260906033018 | 72 | 0.0 | 0.9 | 0.00 | 0.00 | 0.00 | 52 | 1022.4 | |
| 20260906032034 | 73 | 331 | 0.9 | 1.7 | 0.00 | 0.00 | 0.00 | 52 | 1022.2 |
| 20260906031030 | 73 | 328 | 0.0 | 0.9 | 0.00 | 0.00 | 0.00 | 57 | 1022.1 |
| 20260906030026 | 74 | 0.0 | 0.9 | 0.00 | 0.00 | 0.00 | 56 | 1021.8 | |
| 20260906025022 | 73 | 134 | 0.9 | 3.5 | 0.00 | 0.00 | 0.00 | 56 | 1021.7 |
| 20260906024018 | 73 | 321 | 0.0 | 1.7 | 0.00 | 0.00 | 0.00 | 52 | 1021.6 |
| 20260906023034 | 73 | 238 | 0.0 | 1.7 | 0.00 | 0.00 | 0.00 | 51 | 1021.4 |
| 20260906022030 | 72 | 140 | 0.0 | 1.7 | 0.00 | 0.00 | 0.00 | 49 | 1021.2 |
| 20260906021026 | 73 | 0.0 | 0.0 | 0.00 | 0.00 | 0.00 | 46 | 1020.6 | |
| 20260906020022 | 74 | 341 | 0.0 | 0.9 | 0.00 | 0.00 | 0.00 | 45 | 1020.4 |
| 20260906015018 | 75 | 1 | 0.0 | 0.9 | 0.00 | 0.00 | 0.00 | 44 | 1020.4 |
| 20260906014035 | 76 | 0.0 | 0.0 | 0.00 | 0.00 | 0.00 | 44 | 1020.4 | |
| 20260906013030 | 77 | 335 | 0.0 | 0.9 | 0.00 | 0.00 | 0.00 | 43 | 1020.3 |
| 20260906012026 | 78 | 0.0 | 0.0 | 0.00 | 0.00 | 0.00 | 42 | 1020.3 | |
| 20260906011022 | 79 | 0.0 | 0.0 | 0.00 | 0.00 | 0.00 | 39 | 1020.4 | |
| 20260906010059 | 81 | 302 | 0.0 | 0.9 | 0.00 | 0.00 | 0.00 | 38 | 1020.4 |
| 20260906005055 | 82 | 0.0 | 0.0 | 0.00 | 0.00 | 0.00 | 36 | 1020.4 | |
| 20260906004031 | 83 | 0.0 | 0.0 | 0.00 | 0.00 | 0.00 | 36 | 1020.5 | |
| 20260906003026 | 83 | 0.0 | 0.0 | 0.00 | 0.00 | 0.00 | 34 | 1020.4 | |
| 20260906002043 | 84 | 0.0 | 0.0 | 0.00 | 0.00 | 0.00 | 33 | 1020.4 | |
| 20260906001018 | 84 | 325 | 0.0 | 1.7 | 0.00 | 0.00 | 0.00 | 33 | 1020.4 |
| 20260906000034 | 84 | 325 | 0.0 | 0.9 | 0.00 | 0.00 | 0.00 | 33 | 1020.5 |
| 20260905235031 | 84 | 325 | 0.0 | 1.7 | 0.00 | 0.00 | 0.00 | 32 | 1020.5 |
| 20260905234027 | 85 | 242 | 0.0 | 1.7 | 0.00 | 0.00 | 0.00 | 32 | 1020.4 |
| 20260905233023 | 84 | 289 | 0.0 | 1.7 | 0.00 | 0.00 | 0.00 | 31 | 1020.3 |
| 20260905232039 | 85 | 315 | 0.0 | 1.7 | 0.00 | 0.00 | 0.00 | 31 | 1020.3 |
| 20260905231015 | 85 | 0.0 | 0.9 | 0.00 | 0.00 | 0.00 | 31 | 1020.2 | |
| 20260905230031 | 85 | 9 | 0.9 | 3.5 | 0.00 | 0.00 | 0.00 | 30 | 1020.3 |
| 20260905225027 | 85 | 342 | 0.9 | 2.6 | 0.00 | 0.00 | 0.00 | 31 | 1020.4 |
| 20260905224043 | 84 | 354 | 0.9 | 1.7 | 0.00 | 0.00 | 0.00 | 30 | 1020.6 |
| 20260905223019 | 85 | 351 | 0.9 | 2.6 | 0.00 | 0.00 | 0.00 | 30 | 1020.6 |
| 20260905222015 | 86 | 358 | 0.9 | 3.5 | 0.00 | 0.00 | 0.00 | 29 | 1020.5 |
| 20260905221031 | 84 | 12 | 0.9 | 2.6 | 0.00 | 0.00 | 0.00 | 31 | 1020.7 |
| 20260905220027 | 84 | 353 | 0.9 | 2.6 | 0.00 | 0.00 | 0.00 | 32 | 1020.7 |